sensor_id;sensor_type;location;lat;lon;timestamp;temperature;humidity
8436;DHT22;4255;48.730;9.156;2023-03-16T00:00:52;3.00;99.90
8436;DHT22;4255;48.730;9.156;2023-03-16T00:03:18;3.00;99.90
8436;DHT22;4255;48.730;9.156;2023-03-16T00:05:51;2.90;99.90
8436;DHT22;4255;48.730;9.156;2023-03-16T00:08:18;2.90;99.90
8436;DHT22;4255;48.730;9.156;2023-03-16T00:10:44;2.80;99.90
8436;DHT22;4255;48.730;9.156;2023-03-16T00:13:18;2.80;99.90
8436;DHT22;4255;48.730;9.156;2023-03-16T00:15:54;2.90;99.90
8436;DHT22;4255;48.730;9.156;2023-03-16T00:18:22;2.90;99.90
8436;DHT22;4255;48.730;9.156;2023-03-16T00:20:56;2.90;99.90
8436;DHT22;4255;48.730;9.156;2023-03-16T00:23:23;2.90;99.90
8436;DHT22;4255;48.730;9.156;2023-03-16T00:25:56;2.80;99.90
8436;DHT22;4255;48.730;9.156;2023-03-16T00:28:23;2.80;99.90
8436;DHT22;4255;48.730;9.156;2023-03-16T00:30:50;2.80;99.90
8436;DHT22;4255;48.730;9.156;2023-03-16T00:33:15;2.70;99.90
8436;DHT22;4255;48.730;9.156;2023-03-16T00:35:44;2.60;99.90
8436;DHT22;4255;48.730;9.156;2023-03-16T00:38:15;2.70;99.90
8436;DHT22;4255;48.730;9.156;2023-03-16T00:40:40;2.70;99.90
8436;DHT22;4255;48.730;9.156;2023-03-16T00:43:06;2.70;99.90
8436;DHT22;4255;48.730;9.156;2023-03-16T00:45:32;2.70;99.90
8436;DHT22;4255;48.730;9.156;2023-03-16T00:47:57;2.70;99.90
8436;DHT22;4255;48.730;9.156;2023-03-16T00:50:23;2.60;99.90
8436;DHT22;4255;48.730;9.156;2023-03-16T00:52:48;2.60;99.90
8436;DHT22;4255;48.730;9.156;2023-03-16T00:55:18;2.60;99.90
8436;DHT22;4255;48.730;9.156;2023-03-16T00:57:44;2.60;99.90
8436;DHT22;4255;48.730;9.156;2023-03-16T01:00:10;2.60;99.90
8436;DHT22;4255;48.730;9.156;2023-03-16T01:02:42;2.50;99.90
8436;DHT22;4255;48.730;9.156;2023-03-16T01:05:10;2.40;99.90
8436;DHT22;4255;48.730;9.156;2023-03-16T01:07:38;2.40;99.90
8436;DHT22;4255;48.730;9.156;2023-03-16T01:10:04;2.40;99.90
8436;DHT22;4255;48.730;9.156;2023-03-16T01:12:30;2.30;99.90
8436;DHT22;4255;48.730;9.156;2023-03-16T01:14:56;2.30;99.90
8436;DHT22;4255;48.730;9.156;2023-03-16T01:17:21;2.00;99.90
8436;DHT22;4255;48.730;9.156;2023-03-16T01:19:47;1.90;99.90
8436;DHT22;4255;48.730;9.156;2023-03-16T01:22:13;1.80;99.90
8436;DHT22;4255;48.730;9.156;2023-03-16T01:24:40;1.70;99.90
8436;DHT22;4255;48.730;9.156;2023-03-16T01:27:07;1.60;99.90
8436;DHT22;4255;48.730;9.156;2023-03-16T01:29:32;1.80;99.90
8436;DHT22;4255;48.730;9.156;2023-03-16T01:31:59;1.80;99.90
8436;DHT22;4255;48.730;9.156;2023-03-16T01:34:25;1.90;99.90
8436;DHT22;4255;48.730;9.156;2023-03-16T01:36:50;1.70;99.90
8436;DHT22;4255;48.730;9.156;2023-03-16T01:39:16;1.60;99.90
8436;DHT22;4255;48.730;9.156;2023-03-16T01:41:43;1.60;99.90
8436;DHT22;4255;48.730;9.156;2023-03-16T01:44:21;1.70;99.90
8436;DHT22;4255;48.730;9.156;2023-03-16T01:46:49;1.60;99.90
8436;DHT22;4255;48.730;9.156;2023-03-16T01:49:35;1.60;99.90
8436;DHT22;4255;48.730;9.156;2023-03-16T01:52:09;1.60;99.90
8436;DHT22;4255;48.730;9.156;2023-03-16T01:54:47;1.50;99.90
8436;DHT22;4255;48.730;9.156;2023-03-16T01:59:46;1.60;99.90
8436;DHT22;4255;48.730;9.156;2023-03-16T02:02:14;1.50;99.90
8436;DHT22;4255;48.730;9.156;2023-03-16T02:07:31;1.50;99.90
8436;DHT22;4255;48.730;9.156;2023-03-16T02:09:59;1.50;99.90
8436;DHT22;4255;48.730;9.156;2023-03-16T02:12:26;1.60;99.90
8436;DHT22;4255;48.730;9.156;2023-03-16T02:14:52;1.70;99.90
8436;DHT22;4255;48.730;9.156;2023-03-16T02:17:23;1.80;99.90
8436;DHT22;4255;48.730;9.156;2023-03-16T02:22:42;1.80;99.90
8436;DHT22;4255;48.730;9.156;2023-03-16T02:25:09;1.70;99.90
8436;DHT22;4255;48.730;9.156;2023-03-16T02:27:59;1.80;99.90
8436;DHT22;4255;48.730;9.156;2023-03-16T02:30:25;1.80;99.90
8436;DHT22;4255;48.730;9.156;2023-03-16T02:32:51;1.90;99.90
8436;DHT22;4255;48.730;9.156;2023-03-16T02:35:19;2.00;99.90
8436;DHT22;4255;48.730;9.156;2023-03-16T02:37:44;2.00;99.90
8436;DHT22;4255;48.730;9.156;2023-03-16T02:40:25;2.00;99.90
8436;DHT22;4255;48.730;9.156;2023-03-16T02:42:59;2.20;99.90
8436;DHT22;4255;48.730;9.156;2023-03-16T02:45:30;2.10;99.90
8436;DHT22;4255;48.730;9.156;2023-03-16T02:48:01;2.10;99.90
8436;DHT22;4255;48.730;9.156;2023-03-16T02:50:29;2.20;99.90
8436;DHT22;4255;48.730;9.156;2023-03-16T02:52:55;2.20;99.90
8436;DHT22;4255;48.730;9.156;2023-03-16T02:55:21;2.20;99.90
8436;DHT22;4255;48.730;9.156;2023-03-16T02:57:47;2.20;99.90
8436;DHT22;4255;48.730;9.156;2023-03-16T03:00:12;2.20;99.90
8436;DHT22;4255;48.730;9.156;2023-03-16T03:02:44;2.10;99.90
8436;DHT22;4255;48.730;9.156;2023-03-16T03:05:10;2.00;99.90
8436;DHT22;4255;48.730;9.156;2023-03-16T03:07:36;2.00;99.90
8436;DHT22;4255;48.730;9.156;2023-03-16T03:10:04;2.00;99.90
8436;DHT22;4255;48.730;9.156;2023-03-16T03:12:31;2.10;99.90
8436;DHT22;4255;48.730;9.156;2023-03-16T03:14:57;2.00;99.90
8436;DHT22;4255;48.730;9.156;2023-03-16T03:17:23;2.00;99.90
8436;DHT22;4255;48.730;9.156;2023-03-16T03:19:58;2.00;99.90
8436;DHT22;4255;48.730;9.156;2023-03-16T03:22:25;1.90;99.90
8436;DHT22;4255;48.730;9.156;2023-03-16T03:24:51;1.90;99.90
8436;DHT22;4255;48.730;9.156;2023-03-16T03:27:17;1.90;99.90
8436;DHT22;4255;48.730;9.156;2023-03-16T03:29:43;2.00;99.90
8436;DHT22;4255;48.730;9.156;2023-03-16T03:32:10;1.90;99.90
8436;DHT22;4255;48.730;9.156;2023-03-16T03:34:36;1.90;99.90
8436;DHT22;4255;48.730;9.156;2023-03-16T03:37:01;1.80;99.90
8436;DHT22;4255;48.730;9.156;2023-03-16T03:39:27;1.80;99.90
8436;DHT22;4255;48.730;9.156;2023-03-16T03:41:53;1.70;99.90
8436;DHT22;4255;48.730;9.156;2023-03-16T03:44:20;1.60;99.90
8436;DHT22;4255;48.730;9.156;2023-03-16T03:46:46;1.50;99.90
8436;DHT22;4255;48.730;9.156;2023-03-16T03:49:12;1.30;99.90
8436;DHT22;4255;48.730;9.156;2023-03-16T03:51:37;1.20;99.90
8436;DHT22;4255;48.730;9.156;2023-03-16T03:54:03;1.10;99.90
8436;DHT22;4255;48.730;9.156;2023-03-16T03:56:29;1.10;99.90
8436;DHT22;4255;48.730;9.156;2023-03-16T03:58:54;1.10;99.90
8436;DHT22;4255;48.730;9.156;2023-03-16T04:01:20;0.90;99.90
8436;DHT22;4255;48.730;9.156;2023-03-16T04:03:46;0.70;99.90
8436;DHT22;4255;48.730;9.156;2023-03-16T04:06:11;0.60;99.90
8436;DHT22;4255;48.730;9.156;2023-03-16T04:08:37;0.80;99.90
8436;DHT22;4255;48.730;9.156;2023-03-16T04:11:02;0.90;99.90
8436;DHT22;4255;48.730;9.156;2023-03-16T04:13:28;1.10;99.90
8436;DHT22;4255;48.730;9.156;2023-03-16T04:15:58;1.20;99.90
8436;DHT22;4255;48.730;9.156;2023-03-16T04:18:24;1.30;99.90
8436;DHT22;4255;48.730;9.156;2023-03-16T04:20:50;1.30;99.90
8436;DHT22;4255;48.730;9.156;2023-03-16T04:23:18;1.30;99.90
8436;DHT22;4255;48.730;9.156;2023-03-16T04:25:44;1.30;99.90
8436;DHT22;4255;48.730;9.156;2023-03-16T04:28:10;1.50;99.90
8436;DHT22;4255;48.730;9.156;2023-03-16T04:30:36;1.50;99.90
8436;DHT22;4255;48.730;9.156;2023-03-16T04:33:02;1.40;99.90
8436;DHT22;4255;48.730;9.156;2023-03-16T04:35:28;1.50;99.90
8436;DHT22;4255;48.730;9.156;2023-03-16T04:37:54;1.50;99.90
8436;DHT22;4255;48.730;9.156;2023-03-16T04:40:20;1.50;99.90
8436;DHT22;4255;48.730;9.156;2023-03-16T04:42:46;1.50;99.90
8436;DHT22;4255;48.730;9.156;2023-03-16T04:45:13;1.40;99.90
8436;DHT22;4255;48.730;9.156;2023-03-16T04:47:39;1.50;99.90
8436;DHT22;4255;48.730;9.156;2023-03-16T04:50:06;1.50;99.90
8436;DHT22;4255;48.730;9.156;2023-03-16T04:52:32;1.60;99.90
8436;DHT22;4255;48.730;9.156;2023-03-16T04:54:57;1.60;99.90
8436;DHT22;4255;48.730;9.156;2023-03-16T04:57:23;1.50;99.90
8436;DHT22;4255;48.730;9.156;2023-03-16T04:59:49;1.50;99.90
8436;DHT22;4255;48.730;9.156;2023-03-16T05:02:15;1.60;99.90
8436;DHT22;4255;48.730;9.156;2023-03-16T05:04:42;1.60;99.90
8436;DHT22;4255;48.730;9.156;2023-03-16T05:07:08;1.70;99.90
8436;DHT22;4255;48.730;9.156;2023-03-16T05:09:33;1.80;99.90
8436;DHT22;4255;48.730;9.156;2023-03-16T05:11:59;1.80;99.90
8436;DHT22;4255;48.730;9.156;2023-03-16T05:14:25;1.90;99.90
8436;DHT22;4255;48.730;9.156;2023-03-16T05:16:50;2.00;99.90
8436;DHT22;4255;48.730;9.156;2023-03-16T05:19:17;2.20;99.90
8436;DHT22;4255;48.730;9.156;2023-03-16T05:21:43;2.20;99.90
8436;DHT22;4255;48.730;9.156;2023-03-16T05:24:10;2.30;99.90
8436;DHT22;4255;48.730;9.156;2023-03-16T05:26:37;2.40;99.90
8436;DHT22;4255;48.730;9.156;2023-03-16T05:29:03;2.30;99.90
8436;DHT22;4255;48.730;9.156;2023-03-16T05:31:29;2.30;99.90
8436;DHT22;4255;48.730;9.156;2023-03-16T05:33:58;2.20;99.90
8436;DHT22;4255;48.730;9.156;2023-03-16T05:36:24;2.10;99.90
8436;DHT22;4255;48.730;9.156;2023-03-16T05:38:50;2.20;99.90
8436;DHT22;4255;48.730;9.156;2023-03-16T05:41:17;2.10;99.90
8436;DHT22;4255;48.730;9.156;2023-03-16T05:43:43;2.10;99.90
8436;DHT22;4255;48.730;9.156;2023-03-16T05:46:09;2.00;99.90
8436;DHT22;4255;48.730;9.156;2023-03-16T05:48:35;2.10;99.90
8436;DHT22;4255;48.730;9.156;2023-03-16T05:51:01;2.00;99.90
8436;DHT22;4255;48.730;9.156;2023-03-16T05:53:31;2.00;99.90
8436;DHT22;4255;48.730;9.156;2023-03-16T05:55:57;2.00;99.90
8436;DHT22;4255;48.730;9.156;2023-03-16T05:58:22;2.10;99.90
8436;DHT22;4255;48.730;9.156;2023-03-16T06:00:48;2.10;99.90
8436;DHT22;4255;48.730;9.156;2023-03-16T06:03:15;2.10;99.90
8436;DHT22;4255;48.730;9.156;2023-03-16T06:05:41;2.10;99.90
8436;DHT22;4255;48.730;9.156;2023-03-16T06:08:07;2.20;99.90
8436;DHT22;4255;48.730;9.156;2023-03-16T06:10:36;2.20;99.90
8436;DHT22;4255;48.730;9.156;2023-03-16T06:13:02;2.20;99.90
8436;DHT22;4255;48.730;9.156;2023-03-16T06:15:27;2.10;99.90
8436;DHT22;4255;48.730;9.156;2023-03-16T06:17:56;2.00;99.90
8436;DHT22;4255;48.730;9.156;2023-03-16T06:20:21;1.90;99.90
8436;DHT22;4255;48.730;9.156;2023-03-16T06:22:47;1.80;99.90
8436;DHT22;4255;48.730;9.156;2023-03-16T06:25:14;1.70;99.90
8436;DHT22;4255;48.730;9.156;2023-03-16T06:27:40;1.80;99.90
8436;DHT22;4255;48.730;9.156;2023-03-16T06:30:07;1.90;99.90
8436;DHT22;4255;48.730;9.156;2023-03-16T06:32:34;1.90;99.90
8436;DHT22;4255;48.730;9.156;2023-03-16T06:35:01;2.00;99.90
8436;DHT22;4255;48.730;9.156;2023-03-16T06:37:28;2.10;99.90
8436;DHT22;4255;48.730;9.156;2023-03-16T06:39:54;2.20;99.90
8436;DHT22;4255;48.730;9.156;2023-03-16T06:42:20;2.20;99.90
8436;DHT22;4255;48.730;9.156;2023-03-16T06:44:46;2.30;99.90
8436;DHT22;4255;48.730;9.156;2023-03-16T06:47:11;2.40;99.90
8436;DHT22;4255;48.730;9.156;2023-03-16T06:49:37;2.40;99.90
8436;DHT22;4255;48.730;9.156;2023-03-16T06:52:03;2.40;99.90
8436;DHT22;4255;48.730;9.156;2023-03-16T06:54:29;2.50;99.90
8436;DHT22;4255;48.730;9.156;2023-03-16T06:56:57;2.60;99.90
8436;DHT22;4255;48.730;9.156;2023-03-16T06:59:22;2.80;99.90
8436;DHT22;4255;48.730;9.156;2023-03-16T07:01:48;3.00;99.90
8436;DHT22;4255;48.730;9.156;2023-03-16T07:04:14;3.00;99.90
8436;DHT22;4255;48.730;9.156;2023-03-16T07:06:40;3.10;99.90
8436;DHT22;4255;48.730;9.156;2023-03-16T07:09:06;3.00;99.90
8436;DHT22;4255;48.730;9.156;2023-03-16T07:11:32;3.20;99.90
8436;DHT22;4255;48.730;9.156;2023-03-16T07:13:58;3.20;99.90
8436;DHT22;4255;48.730;9.156;2023-03-16T07:16:24;3.30;99.90
8436;DHT22;4255;48.730;9.156;2023-03-16T07:18:50;3.40;99.90
8436;DHT22;4255;48.730;9.156;2023-03-16T07:21:16;3.60;99.90
8436;DHT22;4255;48.730;9.156;2023-03-16T07:23:42;3.60;99.90
8436;DHT22;4255;48.730;9.156;2023-03-16T07:26:09;3.90;99.90
8436;DHT22;4255;48.730;9.156;2023-03-16T07:28:37;3.90;99.90
8436;DHT22;4255;48.730;9.156;2023-03-16T07:31:03;4.10;99.90
8436;DHT22;4255;48.730;9.156;2023-03-16T07:33:29;4.20;99.90
8436;DHT22;4255;48.730;9.156;2023-03-16T07:35:56;4.20;99.90
8436;DHT22;4255;48.730;9.156;2023-03-16T07:38:22;4.20;99.90
8436;DHT22;4255;48.730;9.156;2023-03-16T07:40:48;4.20;99.90
8436;DHT22;4255;48.730;9.156;2023-03-16T07:43:13;4.20;99.90
8436;DHT22;4255;48.730;9.156;2023-03-16T07:45:39;4.40;99.90
8436;DHT22;4255;48.730;9.156;2023-03-16T07:48:05;4.50;99.90
8436;DHT22;4255;48.730;9.156;2023-03-16T07:50:31;4.60;99.90
8436;DHT22;4255;48.730;9.156;2023-03-16T07:52:57;4.70;99.90
8436;DHT22;4255;48.730;9.156;2023-03-16T07:55:23;5.00;99.90
8436;DHT22;4255;48.730;9.156;2023-03-16T07:57:48;5.00;99.90
8436;DHT22;4255;48.730;9.156;2023-03-16T08:00:14;5.00;99.90
8436;DHT22;4255;48.730;9.156;2023-03-16T08:02:40;5.10;99.90
8436;DHT22;4255;48.730;9.156;2023-03-16T08:05:06;5.20;99.90
8436;DHT22;4255;48.730;9.156;2023-03-16T08:07:34;5.30;99.90
8436;DHT22;4255;48.730;9.156;2023-03-16T08:10:00;5.40;99.90
8436;DHT22;4255;48.730;9.156;2023-03-16T08:12:26;5.60;99.90
8436;DHT22;4255;48.730;9.156;2023-03-16T08:14:51;5.80;99.90
8436;DHT22;4255;48.730;9.156;2023-03-16T08:17:18;5.80;99.90
8436;DHT22;4255;48.730;9.156;2023-03-16T08:19:44;6.00;99.90
8436;DHT22;4255;48.730;9.156;2023-03-16T08:22:10;6.20;99.90
8436;DHT22;4255;48.730;9.156;2023-03-16T08:24:36;6.30;99.90
8436;DHT22;4255;48.730;9.156;2023-03-16T08:27:02;6.40;99.90
8436;DHT22;4255;48.730;9.156;2023-03-16T08:29:28;6.40;99.90
8436;DHT22;4255;48.730;9.156;2023-03-16T08:31:54;6.40;99.90
8436;DHT22;4255;48.730;9.156;2023-03-16T08:34:23;6.50;99.90
8436;DHT22;4255;48.730;9.156;2023-03-16T08:36:49;6.50;99.90
8436;DHT22;4255;48.730;9.156;2023-03-16T08:39:14;6.30;99.90
8436;DHT22;4255;48.730;9.156;2023-03-16T08:41:41;6.40;99.90
8436;DHT22;4255;48.730;9.156;2023-03-16T08:44:10;6.50;99.90
8436;DHT22;4255;48.730;9.156;2023-03-16T08:46:37;6.70;99.90
8436;DHT22;4255;48.730;9.156;2023-03-16T08:49:03;6.80;99.90
8436;DHT22;4255;48.730;9.156;2023-03-16T08:51:29;6.50;99.90
8436;DHT22;4255;48.730;9.156;2023-03-16T08:53:55;6.30;99.90
8436;DHT22;4255;48.730;9.156;2023-03-16T08:56:21;6.30;99.90
8436;DHT22;4255;48.730;9.156;2023-03-16T08:58:46;6.50;99.90
8436;DHT22;4255;48.730;9.156;2023-03-16T09:01:14;6.70;99.90
8436;DHT22;4255;48.730;9.156;2023-03-16T09:03:42;6.70;99.90
8436;DHT22;4255;48.730;9.156;2023-03-16T09:06:12;6.60;99.90
8436;DHT22;4255;48.730;9.156;2023-03-16T09:08:39;6.70;99.90
8436;DHT22;4255;48.730;9.156;2023-03-16T09:11:07;6.90;99.90
8436;DHT22;4255;48.730;9.156;2023-03-16T09:13:34;6.90;99.90
8436;DHT22;4255;48.730;9.156;2023-03-16T09:16:00;6.90;99.90
8436;DHT22;4255;48.730;9.156;2023-03-16T09:18:27;7.00;99.90
8436;DHT22;4255;48.730;9.156;2023-03-16T09:21:00;7.20;99.90
8436;DHT22;4255;48.730;9.156;2023-03-16T09:23:27;7.20;99.90
8436;DHT22;4255;48.730;9.156;2023-03-16T09:25:58;7.40;99.90
8436;DHT22;4255;48.730;9.156;2023-03-16T09:28:25;7.70;99.90
8436;DHT22;4255;48.730;9.156;2023-03-16T09:30:53;7.80;99.90
8436;DHT22;4255;48.730;9.156;2023-03-16T09:33:19;7.80;99.90
8436;DHT22;4255;48.730;9.156;2023-03-16T09:35:45;7.80;99.90
8436;DHT22;4255;48.730;9.156;2023-03-16T09:38:11;8.00;99.90
8436;DHT22;4255;48.730;9.156;2023-03-16T09:40:37;8.30;99.90
8436;DHT22;4255;48.730;9.156;2023-03-16T09:46:10;8.80;99.90
8436;DHT22;4255;48.730;9.156;2023-03-16T09:48:39;8.60;99.90
8436;DHT22;4255;48.730;9.156;2023-03-16T09:51:12;8.70;99.90
8436;DHT22;4255;48.730;9.156;2023-03-16T09:53:39;8.60;99.90
8436;DHT22;4255;48.730;9.156;2023-03-16T09:56:13;8.90;99.90
8436;DHT22;4255;48.730;9.156;2023-03-16T09:58:40;9.10;99.90
8436;DHT22;4255;48.730;9.156;2023-03-16T10:06:59;9.20;99.90
8436;DHT22;4255;48.730;9.156;2023-03-16T10:09:31;9.20;99.90
8436;DHT22;4255;48.730;9.156;2023-03-16T10:12:00;9.20;99.90
8436;DHT22;4255;48.730;9.156;2023-03-16T10:17:28;9.20;99.90
8436;DHT22;4255;48.730;9.156;2023-03-16T10:20:10;9.30;99.90
8436;DHT22;4255;48.730;9.156;2023-03-16T10:22:42;9.20;99.90
8436;DHT22;4255;48.730;9.156;2023-03-16T10:25:11;9.40;99.90
8436;DHT22;4255;48.730;9.156;2023-03-16T10:27:42;9.60;99.90
8436;DHT22;4255;48.730;9.156;2023-03-16T10:30:22;9.80;99.90
8436;DHT22;4255;48.730;9.156;2023-03-16T10:32:49;9.90;99.90
8436;DHT22;4255;48.730;9.156;2023-03-16T10:38:28;9.90;99.90
8436;DHT22;4255;48.730;9.156;2023-03-16T10:40:55;10.10;99.90
8436;DHT22;4255;48.730;9.156;2023-03-16T10:43:22;10.30;99.90
8436;DHT22;4255;48.730;9.156;2023-03-16T10:45:48;10.60;99.90
8436;DHT22;4255;48.730;9.156;2023-03-16T10:48:17;10.70;99.90
8436;DHT22;4255;48.730;9.156;2023-03-16T10:50:48;10.70;99.90
8436;DHT22;4255;48.730;9.156;2023-03-16T10:53:28;10.70;99.90
8436;DHT22;4255;48.730;9.156;2023-03-16T10:55:59;10.50;99.90
8436;DHT22;4255;48.730;9.156;2023-03-16T10:58:28;10.60;99.90
8436;DHT22;4255;48.730;9.156;2023-03-16T11:00:54;10.60;99.90
8436;DHT22;4255;48.730;9.156;2023-03-16T11:03:27;10.70;99.90
8436;DHT22;4255;48.730;9.156;2023-03-16T11:06:01;10.90;99.90
8436;DHT22;4255;48.730;9.156;2023-03-16T11:08:33;10.80;99.90
8436;DHT22;4255;48.730;9.156;2023-03-16T11:11:02;10.80;99.90
8436;DHT22;4255;48.730;9.156;2023-03-16T11:13:35;10.70;99.90
8436;DHT22;4255;48.730;9.156;2023-03-16T11:18:51;10.50;99.90
8436;DHT22;4255;48.730;9.156;2023-03-16T11:23:55;10.80;99.90
8436;DHT22;4255;48.730;9.156;2023-03-16T11:26:30;10.90;99.90
8436;DHT22;4255;48.730;9.156;2023-03-16T11:29:47;11.20;99.90
8436;DHT22;4255;48.730;9.156;2023-03-16T11:32:19;11.40;99.90
8436;DHT22;4255;48.730;9.156;2023-03-16T11:34:46;11.50;99.90
8436;DHT22;4255;48.730;9.156;2023-03-16T11:37:22;11.70;99.90
8436;DHT22;4255;48.730;9.156;2023-03-16T11:40:06;11.90;99.90
8436;DHT22;4255;48.730;9.156;2023-03-16T11:42:51;11.50;99.90
8436;DHT22;4255;48.730;9.156;2023-03-16T11:45:36;11.50;99.90
8436;DHT22;4255;48.730;9.156;2023-03-16T11:50:56;12.00;99.90
8436;DHT22;4255;48.730;9.156;2023-03-16T11:53:28;12.40;99.90
8436;DHT22;4255;48.730;9.156;2023-03-16T11:56:22;12.40;99.90
8436;DHT22;4255;48.730;9.156;2023-03-16T12:07:28;12.20;99.90
8436;DHT22;4255;48.730;9.156;2023-03-16T12:10:14;12.50;99.90
8436;DHT22;4255;48.730;9.156;2023-03-16T12:15:31;12.50;99.90
8436;DHT22;4255;48.730;9.156;2023-03-16T12:18:03;12.60;99.90
8436;DHT22;4255;48.730;9.156;2023-03-16T12:20:44;12.50;99.90
8436;DHT22;4255;48.730;9.156;2023-03-16T12:23:39;12.50;99.90
8436;DHT22;4255;48.730;9.156;2023-03-16T12:26:07;12.70;99.90
8436;DHT22;4255;48.730;9.156;2023-03-16T12:28:34;12.80;99.90
8436;DHT22;4255;48.730;9.156;2023-03-16T12:31:14;12.70;99.90
8436;DHT22;4255;48.730;9.156;2023-03-16T12:39:20;12.60;99.90
8436;DHT22;4255;48.730;9.156;2023-03-16T12:42:04;12.40;99.90
8436;DHT22;4255;48.730;9.156;2023-03-16T12:44:47;12.40;99.90
8436;DHT22;4255;48.730;9.156;2023-03-16T12:47:22;12.50;99.90
8436;DHT22;4255;48.730;9.156;2023-03-16T12:49:51;12.50;99.90
8436;DHT22;4255;48.730;9.156;2023-03-16T12:52:17;12.80;99.90
8436;DHT22;4255;48.730;9.156;2023-03-16T12:57:17;13.50;99.90
8436;DHT22;4255;48.730;9.156;2023-03-16T12:59:45;14.00;98.80
8436;DHT22;4255;48.730;9.156;2023-03-16T13:02:19;14.10;98.00
8436;DHT22;4255;48.730;9.156;2023-03-16T13:04:58;14.00;96.90
8436;DHT22;4255;48.730;9.156;2023-03-16T13:07:27;14.00;95.30
8436;DHT22;4255;48.730;9.156;2023-03-16T13:10:01;13.80;98.20
8436;DHT22;4255;48.730;9.156;2023-03-16T13:12:33;13.90;97.10
8436;DHT22;4255;48.730;9.156;2023-03-16T13:17:45;13.60;94.00
8436;DHT22;4255;48.730;9.156;2023-03-16T13:22:44;13.50;94.20
8436;DHT22;4255;48.730;9.156;2023-03-16T13:27:37;13.70;92.60
8436;DHT22;4255;48.730;9.156;2023-03-16T13:32:42;13.40;88.70
8436;DHT22;4255;48.730;9.156;2023-03-16T13:35:13;13.40;92.20
8436;DHT22;4255;48.730;9.156;2023-03-16T13:37:41;13.50;91.80
8436;DHT22;4255;48.730;9.156;2023-03-16T13:42:47;13.60;88.80
8436;DHT22;4255;48.730;9.156;2023-03-16T13:45:20;13.70;89.30
8436;DHT22;4255;48.730;9.156;2023-03-16T13:47:47;13.70;89.70
8436;DHT22;4255;48.730;9.156;2023-03-16T13:50:14;13.60;87.70
8436;DHT22;4255;48.730;9.156;2023-03-16T13:52:41;13.30;88.60
8436;DHT22;4255;48.730;9.156;2023-03-16T13:55:15;13.10;89.70
8436;DHT22;4255;48.730;9.156;2023-03-16T13:57:42;13.20;90.10
8436;DHT22;4255;48.730;9.156;2023-03-16T14:00:26;13.40;90.90
8436;DHT22;4255;48.730;9.156;2023-03-16T14:02:56;13.50;90.10
8436;DHT22;4255;48.730;9.156;2023-03-16T14:05:31;13.70;90.50
8436;DHT22;4255;48.730;9.156;2023-03-16T14:07:58;13.90;89.70
8436;DHT22;4255;48.730;9.156;2023-03-16T14:10:30;13.90;90.80
8436;DHT22;4255;48.730;9.156;2023-03-16T14:13:06;13.70;89.60
8436;DHT22;4255;48.730;9.156;2023-03-16T14:15:32;14.00;90.30
8436;DHT22;4255;48.730;9.156;2023-03-16T14:18:15;14.00;85.70
8436;DHT22;4255;48.730;9.156;2023-03-16T14:20:41;14.30;85.10
8436;DHT22;4255;48.730;9.156;2023-03-16T14:23:40;14.30;82.40
8436;DHT22;4255;48.730;9.156;2023-03-16T14:26:08;14.50;81.20
8436;DHT22;4255;48.730;9.156;2023-03-16T14:28:36;14.70;77.30
8436;DHT22;4255;48.730;9.156;2023-03-16T14:31:11;14.60;78.40
8436;DHT22;4255;48.730;9.156;2023-03-16T14:33:40;14.50;76.30
8436;DHT22;4255;48.730;9.156;2023-03-16T14:36:14;14.30;74.50
8436;DHT22;4255;48.730;9.156;2023-03-16T14:38:42;14.20;75.70
8436;DHT22;4255;48.730;9.156;2023-03-16T14:41:15;14.20;76.90
8436;DHT22;4255;48.730;9.156;2023-03-16T14:43:50;14.30;74.20
8436;DHT22;4255;48.730;9.156;2023-03-16T14:46:31;14.20;76.40
8436;DHT22;4255;48.730;9.156;2023-03-16T14:49:05;14.10;75.30
8436;DHT22;4255;48.730;9.156;2023-03-16T14:51:36;14.30;77.90
8436;DHT22;4255;48.730;9.156;2023-03-16T14:54:12;14.20;76.10
8436;DHT22;4255;48.730;9.156;2023-03-16T14:56:38;14.20;74.00
8436;DHT22;4255;48.730;9.156;2023-03-16T14:59:03;14.20;74.50
8436;DHT22;4255;48.730;9.156;2023-03-16T15:01:29;14.10;75.50
8436;DHT22;4255;48.730;9.156;2023-03-16T15:03:55;13.60;72.80
8436;DHT22;4255;48.730;9.156;2023-03-16T15:06:21;13.40;76.10
8436;DHT22;4255;48.730;9.156;2023-03-16T15:08:47;13.60;75.50
8436;DHT22;4255;48.730;9.156;2023-03-16T15:11:15;13.60;75.80
8436;DHT22;4255;48.730;9.156;2023-03-16T15:13:46;13.40;75.00
8436;DHT22;4255;48.730;9.156;2023-03-16T15:16:13;13.40;76.70
8436;DHT22;4255;48.730;9.156;2023-03-16T15:18:39;13.40;77.20
8436;DHT22;4255;48.730;9.156;2023-03-16T15:21:17;13.50;77.10
8436;DHT22;4255;48.730;9.156;2023-03-16T15:23:44;13.80;74.80
8436;DHT22;4255;48.730;9.156;2023-03-16T15:26:12;13.80;74.30
8436;DHT22;4255;48.730;9.156;2023-03-16T15:28:39;13.90;73.50
8436;DHT22;4255;48.730;9.156;2023-03-16T15:31:05;13.90;74.10
8436;DHT22;4255;48.730;9.156;2023-03-16T15:33:31;13.80;72.70
8436;DHT22;4255;48.730;9.156;2023-03-16T15:35:58;13.60;73.30
8436;DHT22;4255;48.730;9.156;2023-03-16T15:38:33;13.40;74.80
8436;DHT22;4255;48.730;9.156;2023-03-16T15:41:01;13.60;78.20
8436;DHT22;4255;48.730;9.156;2023-03-16T15:43:28;13.70;75.80
8436;DHT22;4255;48.730;9.156;2023-03-16T15:45:56;13.90;77.60
8436;DHT22;4255;48.730;9.156;2023-03-16T15:48:23;13.70;73.40
8436;DHT22;4255;48.730;9.156;2023-03-16T15:53:25;13.50;77.00
8436;DHT22;4255;48.730;9.156;2023-03-16T15:55:54;13.60;79.20
8436;DHT22;4255;48.730;9.156;2023-03-16T15:58:24;13.70;76.80
8436;DHT22;4255;48.730;9.156;2023-03-16T16:00:53;13.60;78.60
8436;DHT22;4255;48.730;9.156;2023-03-16T16:03:20;13.70;80.70
8436;DHT22;4255;48.730;9.156;2023-03-16T16:05:46;13.50;80.60
8436;DHT22;4255;48.730;9.156;2023-03-16T16:08:12;13.50;78.20
8436;DHT22;4255;48.730;9.156;2023-03-16T16:10:39;13.30;78.40
8436;DHT22;4255;48.730;9.156;2023-03-16T16:13:08;13.40;80.50
8436;DHT22;4255;48.730;9.156;2023-03-16T16:15:34;13.40;81.60
8436;DHT22;4255;48.730;9.156;2023-03-16T16:18:03;13.50;82.30
8436;DHT22;4255;48.730;9.156;2023-03-16T16:20:37;13.40;79.10
8436;DHT22;4255;48.730;9.156;2023-03-16T16:23:03;13.10;79.00
8436;DHT22;4255;48.730;9.156;2023-03-16T16:25:35;13.10;81.70
8436;DHT22;4255;48.730;9.156;2023-03-16T16:28:04;13.20;82.20
8436;DHT22;4255;48.730;9.156;2023-03-16T16:30:30;13.20;82.20
8436;DHT22;4255;48.730;9.156;2023-03-16T16:32:56;13.30;83.60
8436;DHT22;4255;48.730;9.156;2023-03-16T16:35:27;13.20;83.70
8436;DHT22;4255;48.730;9.156;2023-03-16T16:37:53;13.00;84.60
8436;DHT22;4255;48.730;9.156;2023-03-16T16:40:23;13.00;85.20
8436;DHT22;4255;48.730;9.156;2023-03-16T16:42:52;13.00;86.40
8436;DHT22;4255;48.730;9.156;2023-03-16T16:45:23;13.00;87.70
8436;DHT22;4255;48.730;9.156;2023-03-16T16:47:51;13.10;88.80
8436;DHT22;4255;48.730;9.156;2023-03-16T16:50:23;13.10;90.30
8436;DHT22;4255;48.730;9.156;2023-03-16T16:52:50;13.00;90.10
8436;DHT22;4255;48.730;9.156;2023-03-16T16:55:17;12.90;91.10
8436;DHT22;4255;48.730;9.156;2023-03-16T16:57:44;13.00;91.10
8436;DHT22;4255;48.730;9.156;2023-03-16T17:00:19;12.80;91.60
8436;DHT22;4255;48.730;9.156;2023-03-16T17:02:52;12.80;92.20
8436;DHT22;4255;48.730;9.156;2023-03-16T17:05:23;12.70;92.80
8436;DHT22;4255;48.730;9.156;2023-03-16T17:07:49;12.50;93.10
8436;DHT22;4255;48.730;9.156;2023-03-16T17:10:21;12.50;93.50
8436;DHT22;4255;48.730;9.156;2023-03-16T17:12:50;12.50;93.30
8436;DHT22;4255;48.730;9.156;2023-03-16T17:15:23;12.50;93.70
8436;DHT22;4255;48.730;9.156;2023-03-16T17:17:50;12.50;93.90
8436;DHT22;4255;48.730;9.156;2023-03-16T17:20:21;12.40;94.40
8436;DHT22;4255;48.730;9.156;2023-03-16T17:22:50;12.30;94.90
8436;DHT22;4255;48.730;9.156;2023-03-16T17:25:17;12.20;95.40
8436;DHT22;4255;48.730;9.156;2023-03-16T17:27:44;12.10;95.90